RV Helmer Hanssen — LAHV — position and weather

sailwx.info

Track history (hours):
 
Tides and Currents Weather Stations Pressure Air Temp Water Temp Dewpoint Dewpoint Depression Visibility Wind Speed Wind Dir Waves Ship Positions

Oceanographic research ship RV Helmer Hanssen (Norway)

ex Jan Mayen.

Ship's website: http://uit.no/bfe

Detailed information on ship capabilities available from University of Delaware's Ocean Information Center and ARCUS's ALIAS (Arctic Logistics Information and Support) project.

Last reported at 2017-Mar-26 03:33 UTC. Time now 2017-Mar-26 03:34 UTC.
Position N 69°39' E 018°58'.

Length 64 m; beam 13 m.

Type: Cargo ship. MMSI: 257471500.

Date/timePositionNaut miles runAvg speedWind from/ knotsBaromVisibWave heightAir tempDewpointWater temp
2017-Mar-26 03:33N 69°39' E 018°58'4 6.8
2017-Mar-26 03:00N 69°36' E 018°54'4 8.6 230 / 16989.0 5.2-4.1 5.4
2017-Mar-26 02:33N 69°39' E 018°58'0 0.0
2017-Mar-26 01:32N 69°39' E 018°58'0 0.0
2017-Mar-26 00:33N 69°39' E 018°58'4 6.7
2017-Mar-26 00:00N 69°36' E 018°54'4 8.5 210 / 12991.2 4.7-0.5 5.2
2017-Mar-25 23:33N 69°39' E 018°58'0 0.0
2017-Mar-25 22:32N 69°39' E 018°58'0 0.0
2017-Mar-25 21:33N 69°39' E 018°58'4 6.7
2017-Mar-25 21:00N 69°36' E 018°54'4 8.4 170 / 35992.3 4.5-0.0 4.7
2017-Mar-25 20:32N 69°39' E 018°58'0 0.0
2017-Mar-25 19:33N 69°39' E 018°58'0 0.0
2017-Mar-25 18:33N 69°39' E 018°58'4 6.9
2017-Mar-25 18:00N 69°36' E 018°54'4 8.5 200 / 29998.1 4.2-1.9 5.3
2017-Mar-25 17:33N 69°39' E 018°58'0 0.0
2017-Mar-25 16:32N 69°39' E 018°58'0 0.0
2017-Mar-25 15:33N 69°39' E 018°58'4 6.7
2017-Mar-25 15:00N 69°36' E 018°54'4 8.7 230 / 121003.3 4.4-0.5 5.2
2017-Mar-25 14:33N 69°39' E 018°58'1 1.2
2017-Mar-25 13:33N 69°41' E 018°59'0 0.0
2017-Mar-25 12:33N 69°41' E 018°59'5 9.0
2017-Mar-25 12:00N 69°36' E 018°54'511.6 200 / 191004.6 4.9-2.2 5.4
2017-Mar-25 11:33N 69°41' E 018°59'0 0.0
2017-Mar-25 10:33N 69°41' E 018°59'0 0.0
2017-Mar-25 09:33N 69°41' E 018°59'5 9.0
2017-Mar-25 09:00N 69°36' E 018°54'511.3 200 / 161005.3 4.4-3.0 4.9
2017-Mar-25 08:33N 69°41' E 018°59'0 0.0
2017-Mar-25 07:33N 69°41' E 018°59'1 1.2
2017-Mar-25 06:33N 69°39' E 018°58'4 6.8
2017-Mar-25 06:00N 69°36' E 018°54'4 8.7 190 / 141004.7 3.3-2.8 5.4
2017-Mar-25 05:33N 69°39' E 018°58'0 0.0
2017-Mar-25 04:32N 69°39' E 018°58'0 0.0
2017-Mar-25 03:33N 69°39' E 018°58'4 6.8
2017-Mar-25 03:00N 69°36' E 018°54'4 8.6 200 / 141003.8 2.8-4.1 5.2
2017-Mar-25 02:33N 69°39' E 018°58'0 0.0
2017-Mar-25 01:33N 69°39' E 018°58'0 0.0
2017-Mar-25 00:33N 69°39' E 018°58'4 6.7
2017-Mar-25 00:00N 69°36' E 018°54'4 8.7 220 / 141002.2 2.0-3.3 5.4
2017-Mar-24 23:33N 69°39' E 018°58'0 0.0
2017-Mar-24 22:33N 69°39' E 018°58'0 0.0
2017-Mar-24 21:33N 69°39' E 018°58'4 6.7
2017-Mar-24 21:00N 69°36' E 018°54'4 8.4 200 / 121002.2 2.6-3.2 4.2
2017-Mar-24 20:32N 69°39' E 018°58'0 0.0
2017-Mar-24 19:33N 69°39' E 018°58'0 0.0
2017-Mar-24 18:33N 69°39' E 018°58'4 6.7
2017-Mar-24 18:00N 69°36' E 018°54'4 8.7 200 / 171003.5 1.0-2.8 4.5
2017-Mar-24 17:33N 69°39' E 018°58'0 0.0
2017-Mar-24 16:33N 69°39' E 018°58'0 0.0
2017-Mar-24 15:33N 69°39' E 018°58'4 6.7
2017-Mar-24 15:00N 69°36' E 018°54'4 8.1 180 / 121004.8 3.2-6.6 4.7
2017-Mar-24 14:32N 69°39' E 018°59'9 9.2
2017-Mar-24 13:32N 69°33' E 018°40'9 9.5
2017-Mar-24 12:33N 69°30' E 018°14'3 5.0
2017-Mar-24 12:00N 69°30' E 018°06'3 7.7 190 / 161007.7 2.7-5.3 3.8
2017-Mar-24 11:33N 69°30' E 018°16'3 2.8
2017-Mar-24 10:33N 69°29' E 018°23'2 1.8
2017-Mar-24 09:33N 69°27' E 018°25'3 5.8
2017-Mar-24 09:00N 69°24' E 018°24'920.9 140 / 211009.7 1.1-4.6 4.1
2017-Mar-24 08:33N 69°33' E 018°35'1010.1
2017-Mar-24 07:33N 69°39' E 018°58'1 0.9
2017-Mar-24 06:33N 69°39' E 018°58'4 6.8
2017-Mar-24 06:00N 69°36' E 018°54'4 8.4 210 / 81010.7 -0.2-4.6 4.6
2017-Mar-24 05:32N 69°39' E 018°58'0 0.0
2017-Mar-24 04:33N 69°39' E 018°58'0 0.0
2017-Mar-24 03:33N 69°39' E 018°58'4 6.8
2017-Mar-24 03:00N 69°36' E 018°54'4 8.6 220 / 41011.2 -0.5-6.1 4.5
2017-Mar-24 02:33N 69°39' E 018°58'0 0.0
2017-Mar-24 01:33N 69°39' E 018°58'0 0.0
2017-Mar-24 00:33N 69°39' E 018°58'4 6.7
2017-Mar-24 00:00N 69°36' E 018°54'4 8.6 250 / 61010.6 -0.6-5.8 4.6
2017-Mar-23 23:33N 69°39' E 018°58'0 0.0
2017-Mar-23 22:33N 69°39' E 018°58'0 0.0
2017-Mar-23 21:33N 69°39' E 018°58'4 6.7
2017-Mar-23 21:00N 69°36' E 018°54'4 8.6 180 / 21008.8 -0.9-1.9 4.4
2017-Mar-23 20:33N 69°39' E 018°58'0 0.0
2017-Mar-23 19:33N 69°39' E 018°58'0 0.0
2017-Mar-23 18:33N 69°39' E 018°58'4 6.7
2017-Mar-23 18:00N 69°36' E 018°54'4 8.7 220 / 41007.0 -0.4-2.9 4.6
2017-Mar-23 17:33N 69°39' E 018°58'5 4.7
2017-Mar-23 16:33N 69°44' E 019°03'1510.7
2017-Mar-23 15:11N 69°55' E 019°31'1 6.8
2017-Mar-23 15:00N 69°54' E 019°30'817.3 260 / 331003.1 -0.4-3.0 3.9
2017-Mar-23 14:33N 70°01' E 019°41'1010.1
2017-Mar-23 13:33N 70°07' E 019°18'6 5.7
2017-Mar-23 12:33N 70°12' E 019°23'712.7
2017-Mar-23 12:00N 70°06' E 019°12'3 7.1 280 / 16999.2 1.6-3.8 4.4
2017-Mar-23 11:33N 70°08' E 019°18'4 4.3
2017-Mar-23 10:34N 70°12' E 019°26'2 2.2
2017-Mar-23 09:34N 70°14' E 019°22'2 4.0
2017-Mar-23 09:00N 70°12' E 019°18'4 8.6 280 / 31994.6 2.3-1.2 4.5
2017-Mar-23 08:33N 70°11' E 019°29'1 0.6
2017-Mar-23 07:33N 70°11' E 019°27'1 0.7
2017-Mar-23 06:33N 70°12' E 019°27'610.8
2017-Mar-23 06:00N 70°06' E 019°24'613.1 220 / 31992.2 -0.2-2.3 4.0
2017-Mar-23 05:33N 70°12' E 019°27'1 1.4
2017-Mar-23 04:33N 70°13' E 019°26'4 3.8
2017-Mar-23 03:33N 70°10' E 019°31'6 5.8
2017-Mar-23 02:33N 70°15' E 019°26'2 1.7
2017-Mar-23 01:33N 70°17' E 019°25'2 2.3
2017-Mar-23 00:33N 70°19' E 019°26'1 1.0
2017-Mar-22 23:33N 70°19' E 019°29'1 1.2
2017-Mar-22 22:33N 70°19' E 019°26'0 0.1
2017-Mar-22 21:33N 70°19' E 019°26'3 3.2
2017-Mar-22 20:33N 70°16' E 019°25'3 3.2
2017-Mar-22 19:32N 70°19' E 019°24'9 8.8
2017-Mar-22 18:33N 70°11' E 019°33'1 0.9
2017-Mar-22 17:33N 70°11' E 019°35'4 3.9
2017-Mar-22 16:33N 70°12' E 019°24'0 0.1
2017-Mar-22 15:33N 70°12' E 019°24'4 4.1
2017-Mar-22 14:33N 70°09' E 019°31'1 1.1
2017-Mar-22 13:33N 70°09' E 019°29'3 2.6
2017-Mar-22 12:33N 70°12' E 019°32'610.1
2017-Mar-22 12:00N 70°06' E 019°36'613.3 180 / 12988.1 3.7-5.8 4.2
2017-Mar-22 11:33N 70°12' E 019°34'4 3.5
2017-Mar-22 10:33N 70°08' E 019°36'2 1.9
2017-Mar-22 09:33N 70°10' E 019°33'1017.8
2017-Mar-22 09:00N 70°00' E 019°36'612.8 130 / 12987.8 3.2-5.5 4.0
2017-Mar-22 08:33N 70°06' E 019°36'1110.5
2017-Mar-22 07:32N 70°05' E 019°05'1111.2
2017-Mar-22 06:33N 69°58' E 018°42'1017.6
2017-Mar-22 06:00N 69°48' E 018°36'2 3.5 150 / 16987.7 2.2-5.5 4.0
2017-Mar-22 05:33N 69°49' E 018°32'1111.2
2017-Mar-22 04:33N 69°48' E 017°60'1111.1
2017-Mar-22 03:33N 69°45' E 017°29'4 3.7
2017-Mar-22 02:33N 69°47' E 017°20'5 4.7
2017-Mar-22 01:33N 69°50' E 017°08'10 9.8
2017-Mar-22 00:33N 69°54' E 016°43'10 9.5
2017-Mar-21 23:33N 69°50' E 017°08'10 9.9
2017-Mar-21 22:33N 69°46' E 017°34'5 5.2
2017-Mar-21 21:33N 69°47' E 017°19'1 0.5
2017-Mar-21 20:33N 69°47' E 017°18'4 3.9
2017-Mar-21 19:33N 69°49' E 017°08'0 0.3
2017-Mar-21 18:33N 69°49' E 017°07'1 1.1
2017-Mar-21 17:33N 69°48' E 017°06'7 7.1
2017-Mar-21 16:33N 69°55' E 017°04'9 9.1
2017-Mar-21 15:33N 69°47' E 016°57'4 3.8
2017-Mar-21 14:33N 69°49' E 016°49'9 8.6
2017-Mar-21 13:33N 69°48' E 017°14'9 9.5
2017-Mar-21 12:33N 69°43' E 017°38'813.4
2017-Mar-21 12:00N 69°36' E 017°42'511.7 140 / 27985.8 3.5-3.9 4.1
2017-Mar-21 11:33N 69°35' E 017°56'10 9.6
2017-Mar-21 10:33N 69°31' E 018°22'1111.1
2017-Mar-21 09:33N 69°35' E 018°51'1 2.1
2017-Mar-21 09:00N 69°36' E 018°54'4 8.6 220 / 8986.1 4.0-6.0 4.6
2017-Mar-21 08:33N 69°39' E 018°58'0 0.0
2017-Mar-21 07:33N 69°39' E 018°58'0 0.0
2017-Mar-21 06:33N 69°39' E 018°58'4 6.7
2017-Mar-21 06:00N 69°36' E 018°54'4 8.6 060 / 2986.5 2.6-5.0 4.1
2017-Mar-21 05:33N 69°39' E 018°58'0 0.0
2017-Mar-21 04:32N 69°39' E 018°58'0 0.0
2017-Mar-21 03:33N 69°39' E 018°58'4 6.7
2017-Mar-21 03:00N 69°36' E 018°54'4 8.7 220 / 6986.7 2.2-5.5 4.6
2017-Mar-21 02:33N 69°39' E 018°58'0 0.0
2017-Mar-21 01:33N 69°39' E 018°58'0 0.0
2017-Mar-21 00:33N 69°39' E 018°58'0 0.0
2017-Mar-20 23:32N 69°39' E 018°58'0 0.0
2017-Mar-20 22:33N 69°39' E 018°58'0 0.0
2017-Mar-20 21:33N 69°39' E 018°58'4 6.8
2017-Mar-20 21:00N 69°36' E 018°54'4 8.6 180 / 17986.3 3.7-6.0 4.5
2017-Mar-20 20:33N 69°39' E 018°58'0 0.0
2017-Mar-20 19:33N 69°39' E 018°58'3 3.2
2017-Mar-20 18:33N 69°42' E 019°03'3 5.9
2017-Mar-20 18:00N 69°42' E 019°12'921.1 230 / 10987.0 2.7-6.5 4.3
2017-Mar-20 17:33N 69°50' E 019°23'1111.5
2017-Mar-20 16:33N 70°00' E 019°41'6 6.4
2017-Mar-20 15:33N 70°06' E 019°35'815.0
2017-Mar-20 15:00N 70°00' E 019°18'613.8 100 / 8987.0 2.2-7.5 3.9
2017-Mar-20 14:33N 70°04' E 019°32'7 6.6
2017-Mar-20 13:33N 70°09' E 019°18'9 9.1
2017-Mar-20 12:33N 70°18' E 019°25'610.9
2017-Mar-20 12:00N 70°12' E 019°18'2 4.3 160 / 16987.7 1.6-7.8 4.2
2017-Mar-20 11:33N 70°10' E 019°16'9 8.2
2017-Mar-20 10:30N 70°04' E 019°32'6 6.0
2017-Mar-20 09:33N 70°06' E 019°17'2 2.8
2017-Mar-20 09:00N 70°06' E 019°12'817.9 190 / 10987.7 0.8-9.9 4.2
2017-Mar-20 08:33N 70°13' E 019°22'4 4.2
2017-Mar-20 07:32N 70°17' E 019°24'8 7.8
2017-Mar-20 06:33N 70°10' E 019°18'4 7.9
2017-Mar-20 06:00N 70°06' E 019°12'2 4.5 120 / 12988.3 0.1-9.0 4.0
2017-Mar-20 05:33N 70°07' E 019°16'0 0.2
2017-Mar-20 04:33N 70°07' E 019°16'9 9.0
2017-Mar-20 03:33N 70°02' E 018°55'916.8
2017-Mar-20 03:00N 69°54' E 018°42'1 3.2 100 / 14990.2 -1.3-7.0 3.9
2017-Mar-20 02:33N 69°54' E 018°38'8 8.1
2017-Mar-20 01:33N 69°49' E 018°22'10 9.7
2017-Mar-20 00:33N 69°47' E 017°54'814.6
2017-Mar-20 00:00N 69°42' E 017°36'613.3 090 / 14992.2 -1.0-5.5 4.6
2017-Mar-19 23:33N 69°48' E 017°33'8 8.1
2017-Mar-19 22:32N 69°51' E 017°12'1 0.7
2017-Mar-19 21:33N 69°51' E 017°10'4 6.7
2017-Mar-19 21:00N 69°48' E 017°06'4 9.1 140 / 6994.2 -1.5-6.8 5.2
2017-Mar-19 20:33N 69°52' E 017°04'6 6.3
2017-Mar-19 19:32N 69°55' E 016°47'1010.0
2017-Mar-19 18:33N 69°51' E 017°14'5 8.3
2017-Mar-19 18:00N 69°48' E 017°24'612.2 250 / 12994.7 -0.5-8.5 5.5
2017-Mar-19 17:32N 69°47' E 017°39'5 5.2
2017-Mar-19 16:32N 69°42' E 017°48'1010.6
2017-Mar-19 15:33N 69°33' E 018°01'5 8.7
2017-Mar-19 15:00N 69°30' E 018°12'512.2 200 / 19995.6 -1.8-7.0 4.2
2017-Mar-19 14:33N 69°32' E 018°27'1010.0
2017-Mar-19 13:33N 69°36' E 018°52'4 4.0
2017-Mar-19 12:33N 69°39' E 018°58'4 6.8
2017-Mar-19 12:00N 69°36' E 018°54'4 8.6 200 / 19995.6 -1.8-5.8 5.2
2017-Mar-19 11:33N 69°39' E 018°58'0 0.0
2017-Mar-19 10:33N 69°39' E 018°58'0 0.0
2017-Mar-19 09:33N 69°39' E 018°58'4 6.8
2017-Mar-19 09:00N 69°36' E 018°54'4 8.4 190 / 17995.0 -2.0-7.3 4.8
2017-Mar-19 08:32N 69°39' E 018°58'0 0.0
2017-Mar-19 07:33N 69°39' E 018°58'0 0.0
2017-Mar-19 06:33N 69°39' E 018°58'4 6.8
2017-Mar-19 06:00N 69°36' E 018°54'4 8.6 200 / 17994.8 -4.2-6.6 4.4
2017-Mar-19 05:33N 69°39' E 018°58'0 0.0
2017-Mar-19 04:33N 69°39' E 018°58'0 0.0
2017-Mar-19 03:33N 69°39' E 018°58'4 6.8
2017-Mar-19 03:00N 69°36' E 018°54'4 8.6 200 / 16994.7 -3.5-7.5 4.3
2017-Mar-19 02:33N 69°39' E 018°58'0 0.0
2017-Mar-19 01:32N 69°39' E 018°58'0 0.0
2017-Mar-19 00:33N 69°39' E 018°58'4 6.7
2017-Mar-19 00:00N 69°36' E 018°54'4 8.5 200 / 12995.0 -3.7-8.0 4.5
2017-Mar-18 23:33N 69°39' E 018°58'0 0.0
2017-Mar-18 22:33N 69°39' E 018°58'0 0.0
2017-Mar-18 21:33N 69°39' E 018°58'4 6.7
2017-Mar-18 21:00N 69°36' E 018°54'4 8.4 260 / 8994.6 -4.2-7.5 4.7
2017-Mar-18 20:33N 69°39' E 018°58'0 0.0
2017-Mar-18 19:32N 69°39' E 018°58'0 0.0
2017-Mar-18 18:33N 69°39' E 018°58'4 6.9
2017-Mar-18 18:00N 69°36' E 018°54'4 8.3 150 / 8993.5 -4.2-7.1 4.4
2017-Mar-18 17:33N 69°39' E 018°58'9 8.7
2017-Mar-18 16:33N 69°33' E 018°41'1110.9
2017-Mar-18 15:33N 69°31' E 018°11'4 6.7
2017-Mar-18 15:00N 69°30' E 018°00'3 6.4 310 / 23991.6 -2.0-10.0 4.4
2017-Mar-18 14:33N 69°32' E 018°06'1 0.8
2017-Mar-18 13:33N 69°31' E 018°04'3 2.6
2017-Mar-18 12:33N 69°30' E 018°10'611.6
2017-Mar-18 12:00N 69°24' E 018°18'714.7 340 / 21989.1 -1.8-7.6 4.4
2017-Mar-18 11:33N 69°30' E 018°23'8 8.1
2017-Mar-18 10:33N 69°33' E 018°44'5 4.9
2017-Mar-18 09:33N 69°31' E 018°57'2 3.2
2017-Mar-18 09:00N 69°30' E 018°54'2 4.5 300 / 6986.7 -0.8-8.4 3.8
2017-Mar-18 08:33N 69°31' E 018°59'3 3.5
2017-Mar-18 07:33N 69°35' E 018°56'5 5.1
2017-Mar-18 06:33N 69°39' E 018°58'4 6.7
2017-Mar-18 06:00N 69°36' E 018°54'4 8.5 050 / 10984.7 -1.8-6.0 4.6
2017-Mar-18 05:33N 69°39' E 018°58'0 0.0
2017-Mar-18 04:33N 69°39' E 018°58'0 0.0
2017-Mar-18 03:33N 69°39' E 018°58'0 0.0
2017-Mar-18 02:33N 69°39' E 018°58'0 0.0
2017-Mar-18 01:33N 69°39' E 018°58'0 0.0
2017-Mar-18 00:33N 69°39' E 018°58'0 0.0
2017-Mar-17 23:33N 69°39' E 018°58'0 0.0
2017-Mar-17 22:33N 69°39' E 018°58'0 0.0
2017-Mar-17 21:33N 69°39' E 018°58'0 0.0
2017-Mar-17 20:33N 69°39' E 018°58'0 0.0
2017-Mar-17 19:33N 69°39' E 018°58'0 0.0
2017-Mar-17 18:33N 69°39' E 018°58'2 1.8
2017-Mar-17 17:33N 69°38' E 018°56'9 9.1
2017-Mar-17 16:33N 69°33' E 018°35'10 9.6
2017-Mar-17 15:33N 69°32' E 018°08'3 5.7
2017-Mar-17 15:00N 69°30' E 018°00'2 5.2 020 / 2973.3 0.1-1.2 4.0
2017-Mar-17 14:33N 69°32' E 018°02'2 1.8
2017-Mar-17 13:33N 69°31' E 018°05'6 5.8
2017-Mar-17 12:33N 69°30' E 018°22'3 5.3
2017-Mar-17 12:00N 69°30' E 018°30'4 8.3 080 / 14973.1 1.8-2.8 4.9
2017-Mar-17 11:33N 69°33' E 018°37'6 6.3
2017-Mar-17 10:33N 69°32' E 018°55'2 1.5
2017-Mar-17 09:33N 69°31' E 018°59'2 3.9
2017-Mar-17 09:00N 69°30' E 018°54'410.1 160 / 4974.3 0.2-4.1 3.5
2017-Mar-17 08:33N 69°34' E 018°55'1 0.5
2017-Mar-17 07:33N 69°35' E 018°56'5 4.8
2017-Mar-17 06:33N 69°39' E 018°58'4 6.8
2017-Mar-17 06:00N 69°36' E 018°54'4 8.7 160 / 2975.7 -1.0-4.5 4.9
2017-Mar-17 05:33N 69°39' E 018°58'0 0.0
2017-Mar-17 04:33N 69°39' E 018°58'0 0.0
2017-Mar-17 03:33N 69°39' E 018°58'4 6.8
2017-Mar-17 03:00N 69°36' E 018°54'4 8.5 200 / 4977.8 0.1-6.0 4.6
2017-Mar-17 02:33N 69°39' E 018°58'0 0.0
2017-Mar-17 01:32N 69°39' E 018°58'0 0.0
2017-Mar-17 00:33N 69°39' E 018°58'4 6.7
2017-Mar-17 00:00N 69°36' E 018°54'4 8.4 120 / 4981.1 -0.4-6.3 4.7
2017-Mar-16 23:32N 69°39' E 018°58'0 0.0
2017-Mar-16 22:33N 69°39' E 018°58'0 0.0
2017-Mar-16 21:33N 69°39' E 018°58'4 6.8
2017-Mar-16 21:00N 69°36' E 018°54'4 8.6 140 / 2985.2 -0.0-7.0 5.1
2017-Mar-16 20:33N 69°39' E 018°58'0 0.0
2017-Mar-16 19:33N 69°39' E 018°58'7 6.7
2017-Mar-16 18:33N 69°34' E 018°47'713.0
2017-Mar-16 18:00N 69°30' E 018°30'3 7.7 170 / 16988.7 1.0-5.3 4.8
2017-Mar-16 17:33N 69°31' E 018°21'6 5.5
2017-Mar-16 16:33N 69°32' E 018°05'1 1.2
2017-Mar-16 15:33N 69°32' E 018°02'2 4.5
2017-Mar-16 15:00N 69°30' E 018°06'10 5.7 180 / 8991.2 0.5-3.8 4.0
2017-Mar-16 13:15N 69°32' E 018°34'5 6.7
2017-Mar-16 12:33N 69°33' E 018°46'4 6.2
2017-Mar-16 12:00N 69°30' E 018°48'3 6.6 110 / 2993.6 0.2-3.8 3.5
2017-Mar-16 11:33N 69°31' E 018°56'1 0.9
2017-Mar-16 10:33N 69°31' E 018°58'1 0.5
2017-Mar-16 09:33N 69°31' E 018°60'2 4.3
2017-Mar-16 09:00N 69°30' E 018°54'511.2 250 / 21993.3 0.2-2.3 3.7
2017-Mar-16 08:34N 69°35' E 018°55'2 2.1
2017-Mar-16 07:33N 69°37' E 018°55'3 2.7
2017-Mar-16 06:33N 69°39' E 018°58'0 0.0
2017-Mar-16 05:33N 69°39' E 018°58'0 0.0
2017-Mar-16 04:32N 69°39' E 018°58'0 0.0
2017-Mar-16 03:33N 69°39' E 018°58'  
Track history (hours):
 
Tides and Currents Weather Stations Pressure Air Temp Water Temp Dewpoint Dewpoint Depression Visibility Wind Speed Wind Dir Waves Ship Positions

Oceanographic research ship RV Helmer Hanssen (Norway)

ex Jan Mayen.

Ship's website: http://uit.no/bfe

Detailed information on ship capabilities available from University of Delaware's Ocean Information Center and ARCUS's ALIAS (Arctic Logistics Information and Support) project.

Last reported at 2017-Mar-26 03:33 UTC. Time now 2017-Mar-26 03:34 UTC.
Position N 69°39' E 018°58'.

Length 64 m; beam 13 m.

Type: Cargo ship. MMSI: 257471500.

Date/timePositionNaut miles runAvg speedWind from/ knotsBaromVisibWave heightAir tempDewpointWater temp
2017-Mar-26 03:33N 69°39' E 018°58'4 6.8
2017-Mar-26 03:00N 69°36' E 018°54'4 8.6 230 / 16989.0 5.2-4.1 5.4
2017-Mar-26 02:33N 69°39' E 018°58'0 0.0
2017-Mar-26 01:32N 69°39' E 018°58'0 0.0
2017-Mar-26 00:33N 69°39' E 018°58'4 6.7
2017-Mar-26 00:00N 69°36' E 018°54'4 8.5 210 / 12991.2 4.7-0.5 5.2
2017-Mar-25 23:33N 69°39' E 018°58'0 0.0
2017-Mar-25 22:32N 69°39' E 018°58'0 0.0
2017-Mar-25 21:33N 69°39' E 018°58'4 6.7
2017-Mar-25 21:00N 69°36' E 018°54'4 8.4 170 / 35992.3 4.5-0.0 4.7
2017-Mar-25 20:32N 69°39' E 018°58'0 0.0
2017-Mar-25 19:33N 69°39' E 018°58'0 0.0
2017-Mar-25 18:33N 69°39' E 018°58'4 6.9
2017-Mar-25 18:00N 69°36' E 018°54'4 8.5 200 / 29998.1 4.2-1.9 5.3
2017-Mar-25 17:33N 69°39' E 018°58'0 0.0
2017-Mar-25 16:32N 69°39' E 018°58'0 0.0
2017-Mar-25 15:33N 69°39' E 018°58'4 6.7
2017-Mar-25 15:00N 69°36' E 018°54'4 8.7 230 / 121003.3 4.4-0.5 5.2
2017-Mar-25 14:33N 69°39' E 018°58'1 1.2
2017-Mar-25 13:33N 69°41' E 018°59'0 0.0
2017-Mar-25 12:33N 69°41' E 018°59'5 9.0
2017-Mar-25 12:00N 69°36' E 018°54'511.6 200 / 191004.6 4.9-2.2 5.4
2017-Mar-25 11:33N 69°41' E 018°59'0 0.0
2017-Mar-25 10:33N 69°41' E 018°59'0 0.0
2017-Mar-25 09:33N 69°41' E 018°59'5 9.0
2017-Mar-25 09:00N 69°36' E 018°54'511.3 200 / 161005.3 4.4-3.0 4.9
2017-Mar-25 08:33N 69°41' E 018°59'0 0.0
2017-Mar-25 07:33N 69°41' E 018°59'1 1.2
2017-Mar-25 06:33N 69°39' E 018°58'4 6.8
2017-Mar-25 06:00N 69°36' E 018°54'4 8.7 190 / 141004.7 3.3-2.8 5.4
2017-Mar-25 05:33N 69°39' E 018°58'0 0.0
2017-Mar-25 04:32N 69°39' E 018°58'0 0.0
2017-Mar-25 03:33N 69°39' E 018°58'4 6.8
2017-Mar-25 03:00N 69°36' E 018°54'4 8.6 200 / 141003.8 2.8-4.1 5.2
2017-Mar-25 02:33N 69°39' E 018°58'0 0.0
2017-Mar-25 01:33N 69°39' E 018°58'0 0.0
2017-Mar-25 00:33N 69°39' E 018°58'4 6.7
2017-Mar-25 00:00N 69°36' E 018°54'4 8.7 220 / 141002.2 2.0-3.3 5.4
2017-Mar-24 23:33N 69°39' E 018°58'0 0.0
2017-Mar-24 22:33N 69°39' E 018°58'0 0.0
2017-Mar-24 21:33N 69°39' E 018°58'4 6.7
2017-Mar-24 21:00N 69°36' E 018°54'4 8.4 200 / 121002.2 2.6-3.2 4.2
2017-Mar-24 20:32N 69°39' E 018°58'0 0.0
2017-Mar-24 19:33N 69°39' E 018°58'0 0.0
2017-Mar-24 18:33N 69°39' E 018°58'4 6.7
2017-Mar-24 18:00N 69°36' E 018°54'4 8.7 200 / 171003.5 1.0-2.8 4.5
2017-Mar-24 17:33N 69°39' E 018°58'0 0.0
2017-Mar-24 16:33N 69°39' E 018°58'0 0.0
2017-Mar-24 15:33N 69°39' E 018°58'4 6.7
2017-Mar-24 15:00N 69°36' E 018°54'4 8.1 180 / 121004.8 3.2-6.6 4.7
2017-Mar-24 14:32N 69°39' E 018°59'9 9.2
2017-Mar-24 13:32N 69°33' E 018°40'9 9.5
2017-Mar-24 12:33N 69°30' E 018°14'3 5.0
2017-Mar-24 12:00N 69°30' E 018°06'3 7.7 190 / 161007.7 2.7-5.3 3.8
2017-Mar-24 11:33N 69°30' E 018°16'3 2.8
2017-Mar-24 10:33N 69°29' E 018°23'2 1.8
2017-Mar-24 09:33N 69°27' E 018°25'3 5.8
2017-Mar-24 09:00N 69°24' E 018°24'920.9 140 / 211009.7 1.1-4.6 4.1
2017-Mar-24 08:33N 69°33' E 018°35'1010.1
2017-Mar-24 07:33N 69°39' E 018°58'1 0.9
2017-Mar-24 06:33N 69°39' E 018°58'4 6.8
2017-Mar-24 06:00N 69°36' E 018°54'4 8.4 210 / 81010.7 -0.2-4.6 4.6
2017-Mar-24 05:32N 69°39' E 018°58'0 0.0
2017-Mar-24 04:33N 69°39' E 018°58'0 0.0
2017-Mar-24 03:33N 69°39' E 018°58'4 6.8
2017-Mar-24 03:00N 69°36' E 018°54'4 8.6 220 / 41011.2 -0.5-6.1 4.5
2017-Mar-24 02:33N 69°39' E 018°58'0 0.0
2017-Mar-24 01:33N 69°39' E 018°58'0 0.0
2017-Mar-24 00:33N 69°39' E 018°58'4 6.7
2017-Mar-24 00:00N 69°36' E 018°54'4 8.6 250 / 61010.6 -0.6-5.8 4.6
2017-Mar-23 23:33N 69°39' E 018°58'0 0.0
2017-Mar-23 22:33N 69°39' E 018°58'0 0.0
2017-Mar-23 21:33N 69°39' E 018°58'4 6.7
2017-Mar-23 21:00N 69°36' E 018°54'4 8.6 180 / 21008.8 -0.9-1.9 4.4
2017-Mar-23 20:33N 69°39' E 018°58'0 0.0
2017-Mar-23 19:33N 69°39' E 018°58'0 0.0
2017-Mar-23 18:33N 69°39' E 018°58'4 6.7
2017-Mar-23 18:00N 69°36' E 018°54'4 8.7 220 / 41007.0 -0.4-2.9 4.6
2017-Mar-23 17:33N 69°39' E 018°58'5 4.7
2017-Mar-23 16:33N 69°44' E 019°03'1510.7
2017-Mar-23 15:11N 69°55' E 019°31'1 6.8
2017-Mar-23 15:00N 69°54' E 019°30'817.3 260 / 331003.1 -0.4-3.0 3.9
2017-Mar-23 14:33N 70°01' E 019°41'1010.1
2017-Mar-23 13:33N 70°07' E 019°18'6 5.7
2017-Mar-23 12:33N 70°12' E 019°23'712.7
2017-Mar-23 12:00N 70°06' E 019°12'3 7.1 280 / 16999.2 1.6-3.8 4.4
2017-Mar-23 11:33N 70°08' E 019°18'4 4.3
2017-Mar-23 10:34N 70°12' E 019°26'2 2.2
2017-Mar-23 09:34N 70°14' E 019°22'2 4.0
2017-Mar-23 09:00N 70°12' E 019°18'4 8.6 280 / 31994.6 2.3-1.2 4.5
2017-Mar-23 08:33N 70°11' E 019°29'1 0.6
2017-Mar-23 07:33N 70°11' E 019°27'1 0.7
2017-Mar-23 06:33N 70°12' E 019°27'610.8
2017-Mar-23 06:00N 70°06' E 019°24'613.1 220 / 31992.2 -0.2-2.3 4.0
2017-Mar-23 05:33N 70°12' E 019°27'1 1.4
2017-Mar-23 04:33N 70°13' E 019°26'4 3.8
2017-Mar-23 03:33N 70°10' E 019°31'6 5.8
2017-Mar-23 02:33N 70°15' E 019°26'2 1.7
2017-Mar-23 01:33N 70°17' E 019°25'2 2.3
2017-Mar-23 00:33N 70°19' E 019°26'1 1.0
2017-Mar-22 23:33N 70°19' E 019°29'1 1.2
2017-Mar-22 22:33N 70°19' E 019°26'0 0.1
2017-Mar-22 21:33N 70°19' E 019°26'3 3.2
2017-Mar-22 20:33N 70°16' E 019°25'3 3.2
2017-Mar-22 19:32N 70°19' E 019°24'9 8.8
2017-Mar-22 18:33N 70°11' E 019°33'1 0.9
2017-Mar-22 17:33N 70°11' E 019°35'4 3.9
2017-Mar-22 16:33N 70°12' E 019°24'0 0.1
2017-Mar-22 15:33N 70°12' E 019°24'4 4.1
2017-Mar-22 14:33N 70°09' E 019°31'1 1.1
2017-Mar-22 13:33N 70°09' E 019°29'3 2.6
2017-Mar-22 12:33N 70°12' E 019°32'610.1
2017-Mar-22 12:00N 70°06' E 019°36'613.3 180 / 12988.1 3.7-5.8 4.2
2017-Mar-22 11:33N 70°12' E 019°34'4 3.5
2017-Mar-22 10:33N 70°08' E 019°36'2 1.9
2017-Mar-22 09:33N 70°10' E 019°33'1017.8
2017-Mar-22 09:00N 70°00' E 019°36'612.8 130 / 12987.8 3.2-5.5 4.0
2017-Mar-22 08:33N 70°06' E 019°36'1110.5
2017-Mar-22 07:32N 70°05' E 019°05'1111.2
2017-Mar-22 06:33N 69°58' E 018°42'1017.6
2017-Mar-22 06:00N 69°48' E 018°36'2 3.5 150 / 16987.7 2.2-5.5 4.0
2017-Mar-22 05:33N 69°49' E 018°32'1111.2
2017-Mar-22 04:33N 69°48' E 017°60'1111.1
2017-Mar-22 03:33N 69°45' E 017°29'4 3.7
2017-Mar-22 02:33N 69°47' E 017°20'5 4.7
2017-Mar-22 01:33N 69°50' E 017°08'10 9.8
2017-Mar-22 00:33N 69°54' E 016°43'10 9.5
2017-Mar-21 23:33N 69°50' E 017°08'10 9.9
2017-Mar-21 22:33N 69°46' E 017°34'5 5.2
2017-Mar-21 21:33N 69°47' E 017°19'1 0.5
2017-Mar-21 20:33N 69°47' E 017°18'4 3.9
2017-Mar-21 19:33N 69°49' E 017°08'0 0.3
2017-Mar-21 18:33N 69°49' E 017°07'1 1.1
2017-Mar-21 17:33N 69°48' E 017°06'7 7.1
2017-Mar-21 16:33N 69°55' E 017°04'9 9.1
2017-Mar-21 15:33N 69°47' E 016°57'4 3.8
2017-Mar-21 14:33N 69°49' E 016°49'9 8.6
2017-Mar-21 13:33N 69°48' E 017°14'9 9.5
2017-Mar-21 12:33N 69°43' E 017°38'813.4
2017-Mar-21 12:00N 69°36' E 017°42'511.7 140 / 27985.8 3.5-3.9 4.1
2017-Mar-21 11:33N 69°35' E 017°56'10 9.6
2017-Mar-21 10:33N 69°31' E 018°22'1111.1
2017-Mar-21 09:33N 69°35' E 018°51'1 2.1
2017-Mar-21 09:00N 69°36' E 018°54'4 8.6 220 / 8986.1 4.0-6.0 4.6
2017-Mar-21 08:33N 69°39' E 018°58'0 0.0
2017-Mar-21 07:33N 69°39' E 018°58'0 0.0
2017-Mar-21 06:33N 69°39' E 018°58'4 6.7
2017-Mar-21 06:00N 69°36' E 018°54'4 8.6 060 / 2986.5 2.6-5.0 4.1
2017-Mar-21 05:33N 69°39' E 018°58'0 0.0
2017-Mar-21 04:32N 69°39' E 018°58'0 0.0
2017-Mar-21 03:33N 69°39' E 018°58'4 6.7
2017-Mar-21 03:00N 69°36' E 018°54'4 8.7 220 / 6986.7 2.2-5.5 4.6
2017-Mar-21 02:33N 69°39' E 018°58'0 0.0
2017-Mar-21 01:33N 69°39' E 018°58'0 0.0
2017-Mar-21 00:33N 69°39' E 018°58'0 0.0
2017-Mar-20 23:32N 69°39' E 018°58'0 0.0
2017-Mar-20 22:33N 69°39' E 018°58'0 0.0
2017-Mar-20 21:33N 69°39' E 018°58'4 6.8
2017-Mar-20 21:00N 69°36' E 018°54'4 8.6 180 / 17986.3 3.7-6.0 4.5
2017-Mar-20 20:33N 69°39' E 018°58'0 0.0
2017-Mar-20 19:33N 69°39' E 018°58'3 3.2
2017-Mar-20 18:33N 69°42' E 019°03'3 5.9
2017-Mar-20 18:00N 69°42' E 019°12'921.1 230 / 10987.0 2.7-6.5 4.3
2017-Mar-20 17:33N 69°50' E 019°23'1111.5
2017-Mar-20 16:33N 70°00' E 019°41'6 6.4
2017-Mar-20 15:33N 70°06' E 019°35'815.0
2017-Mar-20 15:00N 70°00' E 019°18'613.8 100 / 8987.0 2.2-7.5 3.9
2017-Mar-20 14:33N 70°04' E 019°32'7 6.6
2017-Mar-20 13:33N 70°09' E 019°18'9 9.1
2017-Mar-20 12:33N 70°18' E 019°25'610.9
2017-Mar-20 12:00N 70°12' E 019°18'2 4.3 160 / 16987.7 1.6-7.8 4.2
2017-Mar-20 11:33N 70°10' E 019°16'9 8.2
2017-Mar-20 10:30N 70°04' E 019°32'6 6.0
2017-Mar-20 09:33N 70°06' E 019°17'2 2.8
2017-Mar-20 09:00N 70°06' E 019°12'817.9 190 / 10987.7 0.8-9.9 4.2
2017-Mar-20 08:33N 70°13' E 019°22'4 4.2
2017-Mar-20 07:32N 70°17' E 019°24'8 7.8
2017-Mar-20 06:33N 70°10' E 019°18'4 7.9
2017-Mar-20 06:00N 70°06' E 019°12'2 4.5 120 / 12988.3 0.1-9.0 4.0
2017-Mar-20 05:33N 70°07' E 019°16'0 0.2
2017-Mar-20 04:33N 70°07' E 019°16'9 9.0
2017-Mar-20 03:33N 70°02' E 018°55'916.8
2017-Mar-20 03:00N 69°54' E 018°42'1 3.2 100 / 14990.2 -1.3-7.0 3.9
2017-Mar-20 02:33N 69°54' E 018°38'8 8.1
2017-Mar-20 01:33N 69°49' E 018°22'10 9.7
2017-Mar-20 00:33N 69°47' E 017°54'814.6
2017-Mar-20 00:00N 69°42' E 017°36'613.3 090 / 14992.2 -1.0-5.5 4.6
2017-Mar-19 23:33N 69°48' E 017°33'8 8.1
2017-Mar-19 22:32N 69°51' E 017°12'1 0.7
2017-Mar-19 21:33N 69°51' E 017°10'4 6.7
2017-Mar-19 21:00N 69°48' E 017°06'4 9.1 140 / 6994.2 -1.5-6.8 5.2
2017-Mar-19 20:33N 69°52' E 017°04'6 6.3
2017-Mar-19 19:32N 69°55' E 016°47'1010.0
2017-Mar-19 18:33N 69°51' E 017°14'5 8.3
2017-Mar-19 18:00N 69°48' E 017°24'612.2 250 / 12994.7 -0.5-8.5 5.5
2017-Mar-19 17:32N 69°47' E 017°39'5 5.2
2017-Mar-19 16:32N 69°42' E 017°48'1010.6
2017-Mar-19 15:33N 69°33' E 018°01'5 8.7
2017-Mar-19 15:00N 69°30' E 018°12'512.2 200 / 19995.6 -1.8-7.0 4.2
2017-Mar-19 14:33N 69°32' E 018°27'1010.0
2017-Mar-19 13:33N 69°36' E 018°52'4 4.0
2017-Mar-19 12:33N 69°39' E 018°58'4 6.8
2017-Mar-19 12:00N 69°36' E 018°54'4 8.6 200 / 19995.6 -1.8-5.8 5.2
2017-Mar-19 11:33N 69°39' E 018°58'0 0.0
2017-Mar-19 10:33N 69°39' E 018°58'0 0.0
2017-Mar-19 09:33N 69°39' E 018°58'4 6.8
2017-Mar-19 09:00N 69°36' E 018°54'4 8.4 190 / 17995.0 -2.0-7.3 4.8
2017-Mar-19 08:32N 69°39' E 018°58'0 0.0
2017-Mar-19 07:33N 69°39' E 018°58'0 0.0
2017-Mar-19 06:33N 69°39' E 018°58'4 6.8
2017-Mar-19 06:00N 69°36' E 018°54'4 8.6 200 / 17994.8 -4.2-6.6 4.4
2017-Mar-19 05:33N 69°39' E 018°58'0 0.0
2017-Mar-19 04:33N 69°39' E 018°58'0 0.0
2017-Mar-19 03:33N 69°39' E 018°58'4 6.8
2017-Mar-19 03:00N 69°36' E 018°54'4 8.6 200 / 16994.7 -3.5-7.5 4.3
2017-Mar-19 02:33N 69°39' E 018°58'0 0.0
2017-Mar-19 01:32N 69°39' E 018°58'0 0.0
2017-Mar-19 00:33N 69°39' E 018°58'4 6.7
2017-Mar-19 00:00N 69°36' E 018°54'4 8.5 200 / 12995.0 -3.7-8.0 4.5
2017-Mar-18 23:33N 69°39' E 018°58'0 0.0
2017-Mar-18 22:33N 69°39' E 018°58'0 0.0
2017-Mar-18 21:33N 69°39' E 018°58'4 6.7
2017-Mar-18 21:00N 69°36' E 018°54'4 8.4 260 / 8994.6 -4.2-7.5 4.7
2017-Mar-18 20:33N 69°39' E 018°58'0 0.0
2017-Mar-18 19:32N 69°39' E 018°58'0 0.0
2017-Mar-18 18:33N 69°39' E 018°58'4 6.9
2017-Mar-18 18:00N 69°36' E 018°54'4 8.3 150 / 8993.5 -4.2-7.1 4.4
2017-Mar-18 17:33N 69°39' E 018°58'9 8.7
2017-Mar-18 16:33N 69°33' E 018°41'1110.9
2017-Mar-18 15:33N 69°31' E 018°11'4 6.7
2017-Mar-18 15:00N 69°30' E 018°00'3 6.4 310 / 23991.6 -2.0-10.0 4.4
2017-Mar-18 14:33N 69°32' E 018°06'1 0.8
2017-Mar-18 13:33N 69°31' E 018°04'3 2.6
2017-Mar-18 12:33N 69°30' E 018°10'611.6
2017-Mar-18 12:00N 69°24' E 018°18'714.7 340 / 21989.1 -1.8-7.6 4.4
2017-Mar-18 11:33N 69°30' E 018°23'8 8.1
2017-Mar-18 10:33N 69°33' E 018°44'5 4.9
2017-Mar-18 09:33N 69°31' E 018°57'2 3.2
2017-Mar-18 09:00N 69°30' E 018°54'2 4.5 300 / 6986.7 -0.8-8.4 3.8
2017-Mar-18 08:33N 69°31' E 018°59'3 3.5
2017-Mar-18 07:33N 69°35' E 018°56'5 5.1
2017-Mar-18 06:33N 69°39' E 018°58'4 6.7
2017-Mar-18 06:00N 69°36' E 018°54'4 8.5 050 / 10984.7 -1.8-6.0 4.6
2017-Mar-18 05:33N 69°39' E 018°58'0 0.0
2017-Mar-18 04:33N 69°39' E 018°58'0 0.0
2017-Mar-18 03:33N 69°39' E 018°58'0 0.0
2017-Mar-18 02:33N 69°39' E 018°58'0 0.0
2017-Mar-18 01:33N 69°39' E 018°58'0 0.0
2017-Mar-18 00:33N 69°39' E 018°58'0 0.0
2017-Mar-17 23:33N 69°39' E 018°58'0 0.0
2017-Mar-17 22:33N 69°39' E 018°58'0 0.0
2017-Mar-17 21:33N 69°39' E 018°58'0 0.0
2017-Mar-17 20:33N 69°39' E 018°58'0 0.0
2017-Mar-17 19:33N 69°39' E 018°58'0 0.0
2017-Mar-17 18:33N 69°39' E 018°58'2 1.8
2017-Mar-17 17:33N 69°38' E 018°56'9 9.1
2017-Mar-17 16:33N 69°33' E 018°35'10 9.6
2017-Mar-17 15:33N 69°32' E 018°08'3 5.7
2017-Mar-17 15:00N 69°30' E 018°00'2 5.2 020 / 2973.3 0.1-1.2 4.0
2017-Mar-17 14:33N 69°32' E 018°02'2 1.8
2017-Mar-17 13:33N 69°31' E 018°05'6 5.8
2017-Mar-17 12:33N 69°30' E 018°22'3 5.3
2017-Mar-17 12:00N 69°30' E 018°30'4 8.3 080 / 14973.1 1.8-2.8 4.9
2017-Mar-17 11:33N 69°33' E 018°37'6 6.3
2017-Mar-17 10:33N 69°32' E 018°55'2 1.5
2017-Mar-17 09:33N 69°31' E 018°59'2 3.9
2017-Mar-17 09:00N 69°30' E 018°54'410.1 160 / 4974.3 0.2-4.1 3.5
2017-Mar-17 08:33N 69°34' E 018°55'1 0.5
2017-Mar-17 07:33N 69°35' E 018°56'5 4.8
2017-Mar-17 06:33N 69°39' E 018°58'4 6.8
2017-Mar-17 06:00N 69°36' E 018°54'4 8.7 160 / 2975.7 -1.0-4.5 4.9
2017-Mar-17 05:33N 69°39' E 018°58'0 0.0
2017-Mar-17 04:33N 69°39' E 018°58'0 0.0
2017-Mar-17 03:33N 69°39' E 018°58'4 6.8
2017-Mar-17 03:00N 69°36' E 018°54'4 8.5 200 / 4977.8 0.1-6.0 4.6
2017-Mar-17 02:33N 69°39' E 018°58'0 0.0
2017-Mar-17 01:32N 69°39' E 018°58'0 0.0
2017-Mar-17 00:33N 69°39' E 018°58'4 6.7
2017-Mar-17 00:00N 69°36' E 018°54'4 8.4 120 / 4981.1 -0.4-6.3 4.7
2017-Mar-16 23:32N 69°39' E 018°58'0 0.0
2017-Mar-16 22:33N 69°39' E 018°58'0 0.0
2017-Mar-16 21:33N 69°39' E 018°58'4 6.8
2017-Mar-16 21:00N 69°36' E 018°54'4 8.6 140 / 2985.2 -0.0-7.0 5.1
2017-Mar-16 20:33N 69°39' E 018°58'0 0.0
2017-Mar-16 19:33N 69°39' E 018°58'7 6.7
2017-Mar-16 18:33N 69°34' E 018°47'713.0
2017-Mar-16 18:00N 69°30' E 018°30'3 7.7 170 / 16988.7 1.0-5.3 4.8
2017-Mar-16 17:33N 69°31' E 018°21'6 5.5
2017-Mar-16 16:33N 69°32' E 018°05'1 1.2
2017-Mar-16 15:33N 69°32' E 018°02'2 4.5
2017-Mar-16 15:00N 69°30' E 018°06'10 5.7 180 / 8991.2 0.5-3.8 4.0
2017-Mar-16 13:15N 69°32' E 018°34'5 6.7
2017-Mar-16 12:33N 69°33' E 018°46'4 6.2
2017-Mar-16 12:00N 69°30' E 018°48'3 6.6 110 / 2993.6 0.2-3.8 3.5
2017-Mar-16 11:33N 69°31' E 018°56'1 0.9
2017-Mar-16 10:33N 69°31' E 018°58'1 0.5
2017-Mar-16 09:33N 69°31' E 018°60'2 4.3
2017-Mar-16 09:00N 69°30' E 018°54'511.2 250 / 21993.3 0.2-2.3 3.7
2017-Mar-16 08:34N 69°35' E 018°55'2 2.1
2017-Mar-16 07:33N 69°37' E 018°55'3 2.7
2017-Mar-16 06:33N 69°39' E 018°58'0 0.0
2017-Mar-16 05:33N 69°39' E 018°58'0 0.0
2017-Mar-16 04:32N 69°39' E 018°58'0 0.0
2017-Mar-16 03:33N 69°39' E 018°58'  

Dump ship's entire track history